sensor_id;sensor_type;location;lat;lon;timestamp;pressure;altitude;pressure_sealevel;temperature;humidity
36630;BME280;36256;42.154;23.002;2022-08-26T00:01:34;96707.09;;;22.99;73.10
36630;BME280;36256;42.154;23.002;2022-08-26T00:04:01;96716.91;;;22.91;73.97
36630;BME280;36256;42.154;23.002;2022-08-26T00:06:31;96701.59;;;22.88;74.36
36630;BME280;36256;42.154;23.002;2022-08-26T00:08:58;96710.84;;;22.81;74.88
36630;BME280;36256;42.154;23.002;2022-08-26T00:11:26;96704.59;;;22.70;75.90
36630;BME280;36256;42.154;23.002;2022-08-26T00:13:54;96690.16;;;22.88;73.86
36630;BME280;36256;42.154;23.002;2022-08-26T00:16:23;96706.47;;;22.80;75.46
36630;BME280;36256;42.154;23.002;2022-08-26T00:18:50;96705.25;;;22.89;74.37
36630;BME280;36256;42.154;23.002;2022-08-26T00:21:16;96702.94;;;22.87;74.20
36630;BME280;36256;42.154;23.002;2022-08-26T00:23:44;96708.66;;;22.74;74.97
36630;BME280;36256;42.154;23.002;2022-08-26T00:26:12;96706.78;;;22.77;74.23
36630;BME280;36256;42.154;23.002;2022-08-26T00:28:39;96706.47;;;22.80;74.65
36630;BME280;36256;42.154;23.002;2022-08-26T00:31:07;96700.91;;;22.56;75.81
36630;BME280;36256;42.154;23.002;2022-08-26T00:33:37;96703.44;;;22.46;75.96
36630;BME280;36256;42.154;23.002;2022-08-26T00:36:03;96698.97;;;22.64;74.99
36630;BME280;36256;42.154;23.002;2022-08-26T00:38:31;96698.72;;;22.62;75.73
36630;BME280;36256;42.154;23.002;2022-08-26T00:40:57;96708.44;;;22.59;75.66
36630;BME280;36256;42.154;23.002;2022-08-26T00:43:25;96692.88;;;22.54;76.20
36630;BME280;36256;42.154;23.002;2022-08-26T00:46:20;96683.44;;;22.46;76.24
36630;BME280;36256;42.154;23.002;2022-08-26T00:48:51;96691.88;;;22.39;76.87
36630;BME280;36256;42.154;23.002;2022-08-26T00:51:22;96687.28;;;22.49;76.19
36630;BME280;36256;42.154;23.002;2022-08-26T00:54:01;96692.44;;;22.50;76.67
36630;BME280;36256;42.154;23.002;2022-08-26T00:56:35;96690.38;;;22.51;76.84
36630;BME280;36256;42.154;23.002;2022-08-26T00:59:08;96678.28;;;22.45;76.71
36630;BME280;36256;42.154;23.002;2022-08-26T01:01:38;96695.66;;;22.47;76.61
36630;BME280;36256;42.154;23.002;2022-08-26T01:04:07;96674.28;;;22.48;76.37
36630;BME280;36256;42.154;23.002;2022-08-26T01:06:34;96682.22;;;22.55;76.17
36630;BME280;36256;42.154;23.002;2022-08-26T01:09:01;96687.06;;;22.47;76.56
36630;BME280;36256;42.154;23.002;2022-08-26T01:11:28;96686.84;;;22.45;76.44
36630;BME280;36256;42.154;23.002;2022-08-26T01:13:57;96689.72;;;22.45;76.63
36630;BME280;36256;42.154;23.002;2022-08-26T01:16:28;96680.34;;;22.44;76.63
36630;BME280;36256;42.154;23.002;2022-08-26T01:18:56;96685.63;;;22.40;76.56
36630;BME280;36256;42.154;23.002;2022-08-26T01:21:37;96686.84;;;22.32;77.33
36630;BME280;36256;42.154;23.002;2022-08-26T01:24:07;96676.41;;;22.34;76.75
36630;BME280;36256;42.154;23.002;2022-08-26T01:26:38;96681.34;;;22.34;77.12
36630;BME280;36256;42.154;23.002;2022-08-26T01:29:10;96683.75;;;22.43;76.00
36630;BME280;36256;42.154;23.002;2022-08-26T01:31:45;96684.44;;;22.49;75.76
36630;BME280;36256;42.154;23.002;2022-08-26T01:36:43;96688.22;;;22.12;77.76
36630;BME280;36256;42.154;23.002;2022-08-26T01:39:17;96683.53;;;22.28;76.95
36630;BME280;36256;42.154;23.002;2022-08-26T01:41:45;96688.44;;;22.14;77.80
36630;BME280;36256;42.154;23.002;2022-08-26T01:44:21;96681.53;;;22.23;77.11
36630;BME280;36256;42.154;23.002;2022-08-26T01:46:50;96685.38;;;22.25;77.05
36630;BME280;36256;42.154;23.002;2022-08-26T01:49:19;96695.38;;;22.19;76.70
36630;BME280;36256;42.154;23.002;2022-08-26T01:51:49;96682.63;;;22.33;76.31
36630;BME280;36256;42.154;23.002;2022-08-26T01:54:17;96684.59;;;22.25;77.87
36630;BME280;36256;42.154;23.002;2022-08-26T01:56:48;96677.13;;;22.22;77.88
36630;BME280;36256;42.154;23.002;2022-08-26T01:59:17;96672.63;;;22.13;77.72
36630;BME280;36256;42.154;23.002;2022-08-26T02:01:47;96679.97;;;22.09;77.87
36630;BME280;36256;42.154;23.002;2022-08-26T02:06:50;96687.66;;;22.14;77.85
36630;BME280;36256;42.154;23.002;2022-08-26T02:09:18;96676.97;;;22.01;78.41
36630;BME280;36256;42.154;23.002;2022-08-26T02:11:46;96687.63;;;22.01;77.50
36630;BME280;36256;42.154;23.002;2022-08-26T02:14:19;96683.91;;;22.06;77.60
36630;BME280;36256;42.154;23.002;2022-08-26T02:16:49;96686.13;;;22.13;77.98
36630;BME280;36256;42.154;23.002;2022-08-26T02:19:23;96680.84;;;22.04;77.50
36630;BME280;36256;42.154;23.002;2022-08-26T02:21:52;96679.75;;;22.07;76.56
36630;BME280;36256;42.154;23.002;2022-08-26T02:24:22;96680.84;;;22.04;77.90
36630;BME280;36256;42.154;23.002;2022-08-26T02:26:53;96683.69;;;22.04;77.95
36630;BME280;36256;42.154;23.002;2022-08-26T02:29:23;96681.53;;;22.23;76.51
36630;BME280;36256;42.154;23.002;2022-08-26T02:31:51;96677.88;;;22.09;77.16
36630;BME280;36256;42.154;23.002;2022-08-26T02:34:22;96680.50;;;22.07;77.67
36630;BME280;36256;42.154;23.002;2022-08-26T02:36:55;96677.53;;;22.00;77.91
36630;BME280;36256;42.154;23.002;2022-08-26T02:39:22;96672.44;;;21.93;78.67
36630;BME280;36256;42.154;23.002;2022-08-26T02:41:49;96678.72;;;21.91;78.58
36630;BME280;36256;42.154;23.002;2022-08-26T02:44:16;96676.84;;;21.94;78.11
36630;BME280;36256;42.154;23.002;2022-08-26T02:46:43;96675.97;;;21.99;77.61
36630;BME280;36256;42.154;23.002;2022-08-26T02:49:13;96677.63;;;21.94;78.51
36630;BME280;36256;42.154;23.002;2022-08-26T02:51:40;96678.28;;;21.87;78.88
36630;BME280;36256;42.154;23.002;2022-08-26T02:54:08;96679.53;;;21.73;79.35
36630;BME280;36256;42.154;23.002;2022-08-26T02:56:35;96677.94;;;21.91;77.25
36630;BME280;36256;42.154;23.002;2022-08-26T02:59:02;96679.66;;;21.80;78.98
36630;BME280;36256;42.154;23.002;2022-08-26T03:01:31;96684.56;;;21.80;79.02
36630;BME280;36256;42.154;23.002;2022-08-26T03:03:59;96673.66;;;21.65;79.28
36630;BME280;36256;42.154;23.002;2022-08-26T03:06:27;96681.81;;;21.74;78.60
36630;BME280;36256;42.154;23.002;2022-08-26T03:08:54;96679.19;;;21.76;78.33
36630;BME280;36256;42.154;23.002;2022-08-26T03:11:21;96676.44;;;21.71;78.38
36630;BME280;36256;42.154;23.002;2022-08-26T03:13:50;96675.50;;;21.63;79.50
36630;BME280;36256;42.154;23.002;2022-08-26T03:16:17;96666.91;;;21.81;77.82
36630;BME280;36256;42.154;23.002;2022-08-26T03:18:44;96670.78;;;21.65;79.03
36630;BME280;36256;42.154;23.002;2022-08-26T03:21:18;96667.03;;;21.57;78.99
36630;BME280;36256;42.154;23.002;2022-08-26T03:23:45;96680.59;;;21.70;78.64
36630;BME280;36256;42.154;23.002;2022-08-26T03:26:13;96667.50;;;21.61;79.01
36630;BME280;36256;42.154;23.002;2022-08-26T03:28:41;96680.63;;;21.51;79.60
36630;BME280;36256;42.154;23.002;2022-08-26T03:31:28;96665.09;;;21.65;78.78
36630;BME280;36256;42.154;23.002;2022-08-26T03:33:55;96664.88;;;21.63;79.38
36630;BME280;36256;42.154;23.002;2022-08-26T03:36:25;96667.16;;;21.65;79.06
36630;BME280;36256;42.154;23.002;2022-08-26T03:38:52;96657.78;;;21.51;80.04
36630;BME280;36256;42.154;23.002;2022-08-26T03:41:19;96672.81;;;21.70;77.90
36630;BME280;36256;42.154;23.002;2022-08-26T03:43:47;96673.38;;;21.50;79.59
36630;BME280;36256;42.154;23.002;2022-08-26T03:46:17;96685.09;;;21.47;80.03
36630;BME280;36256;42.154;23.002;2022-08-26T03:48:44;96682.16;;;21.71;78.24
36630;BME280;36256;42.154;23.002;2022-08-26T03:51:13;96675.50;;;21.63;78.97
36630;BME280;36256;42.154;23.002;2022-08-26T03:53:45;96676.50;;;21.65;78.50
36630;BME280;36256;42.154;23.002;2022-08-26T03:56:13;96671.47;;;21.71;77.96
36630;BME280;36256;42.154;23.002;2022-08-26T03:58:40;96670.94;;;21.73;77.90
36630;BME280;36256;42.154;23.002;2022-08-26T04:01:08;96675.25;;;21.79;78.06
36630;BME280;36256;42.154;23.002;2022-08-26T04:03:35;96673.25;;;21.74;76.96
36630;BME280;36256;42.154;23.002;2022-08-26T04:06:20;96677.84;;;21.64;78.00
36630;BME280;36256;42.154;23.002;2022-08-26T04:08:47;96675.50;;;21.63;78.35
36630;BME280;36256;42.154;23.002;2022-08-26T04:11:18;96675.97;;;21.85;75.21
36630;BME280;36256;42.154;23.002;2022-08-26T04:13:47;96676.72;;;21.86;76.23
36630;BME280;36256;42.154;23.002;2022-08-26T04:16:16;96678.75;;;21.72;77.75
36630;BME280;36256;42.154;23.002;2022-08-26T04:18:43;96684.19;;;21.89;75.79
36630;BME280;36256;42.154;23.002;2022-08-26T04:21:12;96679.59;;;21.67;77.47
36630;BME280;36256;42.154;23.002;2022-08-26T04:23:40;96679.53;;;21.73;77.65
36630;BME280;36256;42.154;23.002;2022-08-26T04:26:14;96676.50;;;21.65;78.55
36630;BME280;36256;42.154;23.002;2022-08-26T04:28:41;96685.22;;;21.73;78.35
36630;BME280;36256;42.154;23.002;2022-08-26T04:31:15;96686.28;;;21.88;77.42
36630;BME280;36256;42.154;23.002;2022-08-26T04:33:45;96689.25;;;21.83;77.72
36630;BME280;36256;42.154;23.002;2022-08-26T04:36:15;96676.56;;;21.78;78.13
36630;BME280;36256;42.154;23.002;2022-08-26T04:38:42;96675.00;;;21.77;77.91
36630;BME280;36256;42.154;23.002;2022-08-26T04:41:09;96685.34;;;21.80;78.40
36630;BME280;36256;42.154;23.002;2022-08-26T04:43:42;96679.19;;;21.76;78.71
36630;BME280;36256;42.154;23.002;2022-08-26T04:46:09;96681.81;;;21.74;78.15
36630;BME280;36256;42.154;23.002;2022-08-26T04:48:39;96676.78;;;21.80;78.38
36630;BME280;36256;42.154;23.002;2022-08-26T04:51:07;96679.53;;;21.73;78.54
36630;BME280;36256;42.154;23.002;2022-08-26T04:53:35;96671.41;;;21.77;78.79
36630;BME280;36256;42.154;23.002;2022-08-26T04:56:02;96665.13;;;21.78;79.45
36630;BME280;36256;42.154;23.002;2022-08-26T04:58:29;96668.63;;;21.90;77.50
36630;BME280;36256;42.154;23.002;2022-08-26T05:00:56;96667.78;;;21.76;78.68
36630;BME280;36256;42.154;23.002;2022-08-26T05:03:24;96669.03;;;21.62;79.17
36630;BME280;36256;42.154;23.002;2022-08-26T05:05:56;96668.69;;;21.84;77.25
36630;BME280;36256;42.154;23.002;2022-08-26T05:08:24;96676.09;;;21.93;78.16
36630;BME280;36256;42.154;23.002;2022-08-26T05:10:53;96670.59;;;21.95;77.42
36630;BME280;36256;42.154;23.002;2022-08-26T05:13:24;96668.06;;;21.92;76.96
36630;BME280;36256;42.154;23.002;2022-08-26T05:15:51;96674.03;;;22.20;74.78
36630;BME280;36256;42.154;23.002;2022-08-26T05:18:21;96669.31;;;22.22;74.34
36630;BME280;36256;42.154;23.002;2022-08-26T05:20:51;96671.19;;;22.20;75.16
36630;BME280;36256;42.154;23.002;2022-08-26T05:23:21;96670.53;;;22.27;74.58
36630;BME280;36256;42.154;23.002;2022-08-26T05:25:49;96678.00;;;22.17;76.01
36630;BME280;36256;42.154;23.002;2022-08-26T05:28:22;96675.03;;;22.22;75.86
36630;BME280;36256;42.154;23.002;2022-08-26T05:30:49;96682.66;;;22.46;73.78
36630;BME280;36256;42.154;23.002;2022-08-26T05:33:17;96682.88;;;22.48;74.47
36630;BME280;36256;42.154;23.002;2022-08-26T05:35:45;96688.78;;;22.37;75.81
36630;BME280;36256;42.154;23.002;2022-08-26T05:38:17;96687.06;;;22.47;73.84
36630;BME280;36256;42.154;23.002;2022-08-26T05:40:47;96686.72;;;22.37;74.02
36630;BME280;36256;42.154;23.002;2022-08-26T05:43:19;96698.72;;;22.49;74.91
36630;BME280;36256;42.154;23.002;2022-08-26T05:45:49;96698.53;;;22.60;72.86
36630;BME280;36256;42.154;23.002;2022-08-26T05:48:17;96702.28;;;22.68;72.53
36630;BME280;36256;42.154;23.002;2022-08-26T05:50:51;96692.34;;;22.56;73.59
36630;BME280;36256;42.154;23.002;2022-08-26T05:53:19;96705.97;;;22.50;74.79
36630;BME280;36256;42.154;23.002;2022-08-26T05:55:49;96711.28;;;22.59;72.97
36630;BME280;36256;42.154;23.002;2022-08-26T05:58:18;96697.63;;;22.52;73.95
36630;BME280;36256;42.154;23.002;2022-08-26T06:01:01;96689.59;;;22.50;74.93
36630;BME280;36256;42.154;23.002;2022-08-26T06:03:31;96698.38;;;22.52;74.40
36630;BME280;36256;42.154;23.002;2022-08-26T06:06:12;96711.34;;;22.53;74.67
36630;BME280;36256;42.154;23.002;2022-08-26T06:08:39;96711.47;;;22.48;74.77
36630;BME280;36256;42.154;23.002;2022-08-26T06:11:09;96705.28;;;22.31;75.54
36630;BME280;36256;42.154;23.002;2022-08-26T06:13:45;96707.81;;;22.21;75.57
36630;BME280;36256;42.154;23.002;2022-08-26T06:16:14;96705.41;;;22.38;74.29
36630;BME280;36256;42.154;23.002;2022-08-26T06:18:43;96703.88;;;22.37;75.25
36630;BME280;36256;42.154;23.002;2022-08-26T06:23:37;96709.25;;;22.41;74.19
36630;BME280;36256;42.154;23.002;2022-08-26T06:26:24;96711.34;;;22.27;75.84
36630;BME280;36256;42.154;23.002;2022-08-26T06:28:51;96720.25;;;22.50;74.01
36630;BME280;36256;42.154;23.002;2022-08-26T06:31:18;96713.63;;;22.29;77.84
36630;BME280;36256;42.154;23.002;2022-08-26T06:33:45;96709.13;;;22.33;75.23
36630;BME280;36256;42.154;23.002;2022-08-26T06:36:17;96715.88;;;22.49;74.82
36630;BME280;36256;42.154;23.002;2022-08-26T06:38:48;96702.66;;;22.46;76.36
36630;BME280;36256;42.154;23.002;2022-08-26T06:41:16;96706.34;;;22.59;74.77
36630;BME280;36256;42.154;23.002;2022-08-26T06:43:43;96702.44;;;22.44;76.48
36630;BME280;36256;42.154;23.002;2022-08-26T06:46:11;96705.78;;;22.61;74.97
36630;BME280;36256;42.154;23.002;2022-08-26T06:48:38;96706.22;;;22.65;74.38
36630;BME280;36256;42.154;23.002;2022-08-26T06:51:15;96707.78;;;22.66;74.43
36630;BME280;36256;42.154;23.002;2022-08-26T06:53:44;96702.06;;;22.66;75.65
36630;BME280;36256;42.154;23.002;2022-08-26T06:56:15;96701.81;;;22.77;74.39
36630;BME280;36256;42.154;23.002;2022-08-26T06:58:44;96710.97;;;22.76;75.47
36630;BME280;36256;42.154;23.002;2022-08-26T07:01:20;96703.81;;;22.82;75.03
36630;BME280;36256;42.154;23.002;2022-08-26T07:03:52;96706.00;;;22.76;76.65
36630;BME280;36256;42.154;23.002;2022-08-26T07:06:23;96714.81;;;22.78;75.08
36630;BME280;36256;42.154;23.002;2022-08-26T07:08:52;96711.53;;;22.87;76.22
36630;BME280;36256;42.154;23.002;2022-08-26T07:11:19;96711.72;;;23.02;75.93
36630;BME280;36256;42.154;23.002;2022-08-26T07:13:46;96716.97;;;23.24;72.93
36630;BME280;36256;42.154;23.002;2022-08-26T07:16:14;96722.69;;;23.37;71.52
36630;BME280;36256;42.154;23.002;2022-08-26T07:18:43;96718.63;;;23.33;70.63
36630;BME280;36256;42.154;23.002;2022-08-26T07:21:13;96725.88;;;23.34;71.76
36630;BME280;36256;42.154;23.002;2022-08-26T07:23:40;96718.91;;;23.56;69.87
36630;BME280;36256;42.154;23.002;2022-08-26T07:26:11;96707.78;;;23.52;71.24
36630;BME280;36256;42.154;23.002;2022-08-26T07:28:38;96706.59;;;23.48;72.47
36630;BME280;36256;42.154;23.002;2022-08-26T07:31:06;96707.63;;;23.71;70.11
36630;BME280;36256;42.154;23.002;2022-08-26T07:33:36;96710.34;;;23.76;72.53
36630;BME280;36256;42.154;23.002;2022-08-26T07:36:05;96715.97;;;24.02;68.75
36630;BME280;36256;42.154;23.002;2022-08-26T07:38:35;96707.16;;;24.00;70.49
36630;BME280;36256;42.154;23.002;2022-08-26T07:41:02;96717.81;;;24.13;70.28
36630;BME280;36256;42.154;23.002;2022-08-26T07:43:29;96716.53;;;24.42;67.71
36630;BME280;36256;42.154;23.002;2022-08-26T07:45:56;96708.53;;;24.48;68.55
36630;BME280;36256;42.154;23.002;2022-08-26T07:48:23;96707.88;;;24.63;67.51
36630;BME280;36256;42.154;23.002;2022-08-26T07:50:50;96710.41;;;24.66;67.77
36630;BME280;36256;42.154;23.002;2022-08-26T07:53:20;96707.03;;;24.75;68.24
36630;BME280;36256;42.154;23.002;2022-08-26T07:55:49;96706.31;;;24.82;68.42
36630;BME280;36256;42.154;23.002;2022-08-26T07:58:16;96706.81;;;24.73;70.03
36630;BME280;36256;42.154;23.002;2022-08-26T08:00:43;96705.06;;;24.99;65.11
36630;BME280;36256;42.154;23.002;2022-08-26T08:03:10;96708.09;;;24.85;66.79
36630;BME280;36256;42.154;23.002;2022-08-26T08:05:39;96703.66;;;24.84;66.49
36630;BME280;36256;42.154;23.002;2022-08-26T08:08:07;96707.19;;;24.98;65.44
36630;BME280;36256;42.154;23.002;2022-08-26T08:10:54;96704.75;;;25.10;64.35
36630;BME280;36256;42.154;23.002;2022-08-26T08:13:21;96698.38;;;24.96;67.61
36630;BME280;36256;42.154;23.002;2022-08-26T08:15:49;96696.13;;;25.02;65.82
36630;BME280;36256;42.154;23.002;2022-08-26T08:18:16;96694.03;;;25.46;65.00
36630;BME280;36256;42.154;23.002;2022-08-26T08:20:46;96688.53;;;25.63;68.39
36630;BME280;36256;42.154;23.002;2022-08-26T08:23:31;96687.69;;;26.13;61.69
36630;BME280;36256;42.154;23.002;2022-08-26T08:26:03;96685.53;;;26.06;64.61
36630;BME280;36256;42.154;23.002;2022-08-26T08:28:30;96685.41;;;26.34;65.20
36630;BME280;36256;42.154;23.002;2022-08-26T08:30:57;96682.53;;;26.80;60.48
36630;BME280;36256;42.154;23.002;2022-08-26T08:33:25;96686.84;;;27.11;56.88
36630;BME280;36256;42.154;23.002;2022-08-26T08:35:51;96682.56;;;27.27;56.08
36630;BME280;36256;42.154;23.002;2022-08-26T08:38:18;96680.03;;;27.31;53.16
36630;BME280;36256;42.154;23.002;2022-08-26T08:40:45;96681.50;;;27.62;55.58
36630;BME280;36256;42.154;23.002;2022-08-26T08:43:15;96673.13;;;27.81;55.21
36630;BME280;36256;42.154;23.002;2022-08-26T08:45:53;96671.13;;;27.91;50.86
36630;BME280;36256;42.154;23.002;2022-08-26T08:48:29;96678.81;;;27.89;54.92
36630;BME280;36256;42.154;23.002;2022-08-26T08:51:06;96668.34;;;28.09;56.54
36630;BME280;36256;42.154;23.002;2022-08-26T08:53:44;96668.25;;;28.24;56.83
36630;BME280;36256;42.154;23.002;2022-08-26T09:00:03;96655.50;;;28.27;53.29
36630;BME280;36256;42.154;23.002;2022-08-26T09:02:26;96662.06;;;28.27;54.20
36630;BME280;36256;42.154;23.002;2022-08-26T09:08:10;96654.59;;;28.66;52.52
36630;BME280;36256;42.154;23.002;2022-08-26T09:10:48;96645.44;;;28.77;52.29
36630;BME280;36256;42.154;23.002;2022-08-26T09:13:20;96655.81;;;29.14;50.03
36630;BME280;36256;42.154;23.002;2022-08-26T09:21:22;96643.00;;;29.69;50.33
36630;BME280;36256;42.154;23.002;2022-08-26T09:23:52;96642.75;;;30.01;44.32
36630;BME280;36256;42.154;23.002;2022-08-26T09:26:25;96648.13;;;30.14;48.91
36630;BME280;36256;42.154;23.002;2022-08-26T09:29:01;96644.84;;;30.27;46.67
36630;BME280;36256;42.154;23.002;2022-08-26T09:31:32;96640.78;;;30.30;45.46
36630;BME280;36256;42.154;23.002;2022-08-26T09:34:21;96637.63;;;30.55;46.06
36630;BME280;36256;42.154;23.002;2022-08-26T09:36:59;96637.19;;;30.58;44.91
36630;BME280;36256;42.154;23.002;2022-08-26T09:39:34;96646.09;;;30.34;43.14
36630;BME280;36256;42.154;23.002;2022-08-26T09:42:20;96647.19;;;30.38;47.10
36630;BME280;36256;42.154;23.002;2022-08-26T09:44:57;96642.69;;;30.18;43.31
36630;BME280;36256;42.154;23.002;2022-08-26T09:55:40;96627.31;;;30.25;44.09
36630;BME280;36256;42.154;23.002;2022-08-26T09:58:11;96622.19;;;30.33;44.79
36630;BME280;36256;42.154;23.002;2022-08-26T10:00:42;96616.13;;;30.48;43.80
36630;BME280;36256;42.154;23.002;2022-08-26T10:03:35;96617.53;;;30.47;43.81
36630;BME280;36256;42.154;23.002;2022-08-26T10:06:06;96616.63;;;30.64;43.30
36630;BME280;36256;42.154;23.002;2022-08-26T10:08:50;96616.53;;;30.90;42.59
36630;BME280;36256;42.154;23.002;2022-08-26T10:11:42;96616.69;;;31.12;43.63
36630;BME280;36256;42.154;23.002;2022-08-26T10:14:27;96609.22;;;31.18;39.76
36630;BME280;36256;42.154;23.002;2022-08-26T10:19:40;96600.69;;;31.11;37.96
36630;BME280;36256;42.154;23.002;2022-08-26T10:25:31;96606.50;;;31.11;36.11
36630;BME280;36256;42.154;23.002;2022-08-26T10:28:04;96594.59;;;31.07;37.12
36630;BME280;36256;42.154;23.002;2022-08-26T10:30:41;96595.81;;;31.23;37.43
36630;BME280;36256;42.154;23.002;2022-08-26T10:33:12;96596.41;;;31.31;35.41
36630;BME280;36256;42.154;23.002;2022-08-26T10:35:54;96579.31;;;31.35;38.51
36630;BME280;36256;42.154;23.002;2022-08-26T10:38:31;96577.19;;;31.26;40.42
36630;BME280;36256;42.154;23.002;2022-08-26T10:41:06;96576.56;;;31.37;36.57
36630;BME280;36256;42.154;23.002;2022-08-26T10:43:40;96580.06;;;31.35;38.75
36630;BME280;36256;42.154;23.002;2022-08-26T10:46:13;96585.56;;;31.41;37.98
36630;BME280;36256;42.154;23.002;2022-08-26T10:48:50;96572.75;;;31.44;38.02
36630;BME280;36256;42.154;23.002;2022-08-26T10:51:23;96566.91;;;31.63;37.47
36630;BME280;36256;42.154;23.002;2022-08-26T10:53:56;96564.53;;;31.90;34.22
36630;BME280;36256;42.154;23.002;2022-08-26T10:59:27;96581.59;;;32.05;33.24
36630;BME280;36256;42.154;23.002;2022-08-26T11:02:40;96573.28;;;31.81;32.93
36630;BME280;36256;42.154;23.002;2022-08-26T11:05:16;96571.13;;;31.81;32.31
36630;BME280;36256;42.154;23.002;2022-08-26T11:07:46;96564.13;;;31.74;35.08
36630;BME280;36256;42.154;23.002;2022-08-26T11:12:58;96562.41;;;31.81;36.40
36630;BME280;36256;42.154;23.002;2022-08-26T11:18:02;96562.53;;;31.93;34.22
36630;BME280;36256;42.154;23.002;2022-08-26T11:28:39;96557.75;;;32.07;35.00
36630;BME280;36256;42.154;23.002;2022-08-26T11:37:00;96546.69;;;32.24;35.82
36630;BME280;36256;42.154;23.002;2022-08-26T11:39:30;96553.25;;;32.25;35.08
36630;BME280;36256;42.154;23.002;2022-08-26T11:42:50;96537.06;;;32.22;30.86
36630;BME280;36256;42.154;23.002;2022-08-26T11:44:53;96535.72;;;32.44;31.27
36630;BME280;36256;42.154;23.002;2022-08-26T11:47:29;96543.53;;;32.41;33.92
36630;BME280;36256;42.154;23.002;2022-08-26T11:50:12;96536.84;;;32.29;33.70
36630;BME280;36256;42.154;23.002;2022-08-26T11:52:39;96531.03;;;32.29;31.11
36630;BME280;36256;42.154;23.002;2022-08-26T11:55:13;96527.72;;;31.93;32.22
36630;BME280;36256;42.154;23.002;2022-08-26T11:57:53;96522.44;;;31.80;33.89
36630;BME280;36256;42.154;23.002;2022-08-26T12:00:27;96516.13;;;31.52;33.06
36630;BME280;36256;42.154;23.002;2022-08-26T12:03:01;96514.16;;;31.45;31.10
36630;BME280;36256;42.154;23.002;2022-08-26T12:05:34;96517.38;;;31.40;34.13
36630;BME280;36256;42.154;23.002;2022-08-26T12:08:08;96527.28;;;31.46;34.58
36630;BME280;36256;42.154;23.002;2022-08-26T12:10:37;96525.47;;;31.41;33.65
36630;BME280;36256;42.154;23.002;2022-08-26T12:13:05;96534.78;;;31.21;33.53
36630;BME280;36256;42.154;23.002;2022-08-26T12:15:33;96502.50;;;30.95;33.03
36630;BME280;36256;42.154;23.002;2022-08-26T12:18:19;96516.50;;;30.80;34.34
36630;BME280;36256;42.154;23.002;2022-08-26T12:20:57;96513.78;;;30.91;31.55
36630;BME280;36256;42.154;23.002;2022-08-26T12:26:26;96499.41;;;31.13;34.68
36630;BME280;36256;42.154;23.002;2022-08-26T12:29:08;96511.00;;;31.13;33.25
36630;BME280;36256;42.154;23.002;2022-08-26T12:31:45;96511.41;;;31.28;33.20
36630;BME280;36256;42.154;23.002;2022-08-26T12:34:15;96527.88;;;31.35;32.78
36630;BME280;36256;42.154;23.002;2022-08-26T12:36:51;96501.94;;;31.37;32.77
36630;BME280;36256;42.154;23.002;2022-08-26T12:39:31;96512.03;;;31.46;34.57
36630;BME280;36256;42.154;23.002;2022-08-26T12:42:50;96514.84;;;31.65;33.17
36630;BME280;36256;42.154;23.002;2022-08-26T12:45:04;96517.97;;;31.48;32.19
36630;BME280;36256;42.154;23.002;2022-08-26T12:47:38;96514.16;;;31.26;34.34
36630;BME280;36256;42.154;23.002;2022-08-26T12:50:21;96507.75;;;31.37;33.14
36630;BME280;36256;42.154;23.002;2022-08-26T12:55:40;96501.97;;;31.28;30.86
36630;BME280;36256;42.154;23.002;2022-08-26T13:01:19;96508.59;;;30.90;35.24
36630;BME280;36256;42.154;23.002;2022-08-26T13:03:48;96504.16;;;31.08;32.80
36630;BME280;36256;42.154;23.002;2022-08-26T13:09:01;96497.13;;;31.11;32.46
36630;BME280;36256;42.154;23.002;2022-08-26T13:14:22;96495.00;;;31.02;33.48
36630;BME280;36256;42.154;23.002;2022-08-26T13:16:50;96487.25;;;31.05;32.65
36630;BME280;36256;42.154;23.002;2022-08-26T13:19:21;96491.19;;;30.99;35.15
36630;BME280;36256;42.154;23.002;2022-08-26T13:21:53;96491.50;;;31.04;31.87
36630;BME280;36256;42.154;23.002;2022-08-26T13:27:24;96493.34;;;31.09;36.21
36630;BME280;36256;42.154;23.002;2022-08-26T13:29:52;96493.34;;;31.09;33.28
36630;BME280;36256;42.154;23.002;2022-08-26T13:32:19;96489.91;;;31.22;30.18
36630;BME280;36256;42.154;23.002;2022-08-26T13:34:53;96493.34;;;31.09;29.34
36630;BME280;36256;42.154;23.002;2022-08-26T13:37:20;96489.66;;;30.79;29.67
36630;BME280;36256;42.154;23.002;2022-08-26T13:40:00;96483.72;;;30.77;30.42
36630;BME280;36256;42.154;23.002;2022-08-26T13:42:26;96481.91;;;30.72;31.39
36630;BME280;36256;42.154;23.002;2022-08-26T13:44:53;96484.06;;;30.62;33.48
36630;BME280;36256;42.154;23.002;2022-08-26T13:47:23;96477.31;;;30.69;34.41
36630;BME280;36256;42.154;23.002;2022-08-26T13:49:53;96476.25;;;30.74;31.76
36630;BME280;36256;42.154;23.002;2022-08-26T13:52:20;96482.81;;;30.84;31.98
36630;BME280;36256;42.154;23.002;2022-08-26T13:54:57;96481.91;;;30.91;30.83
36630;BME280;36256;42.154;23.002;2022-08-26T13:57:26;96485.25;;;30.88;30.66
36630;BME280;36256;42.154;23.002;2022-08-26T13:59:53;96480.53;;;30.92;30.43
36630;BME280;36256;42.154;23.002;2022-08-26T14:02:22;96479.78;;;30.92;31.58
36630;BME280;36256;42.154;23.002;2022-08-26T14:04:49;96487.28;;;30.85;32.70
36630;BME280;36256;42.154;23.002;2022-08-26T14:07:15;96479.63;;;30.99;29.98
36630;BME280;36256;42.154;23.002;2022-08-26T14:09:42;96476.56;;;30.78;32.62
36630;BME280;36256;42.154;23.002;2022-08-26T14:12:09;96475.81;;;30.59;34.43
36630;BME280;36256;42.154;23.002;2022-08-26T14:14:35;96478.06;;;30.79;31.66
36630;BME280;36256;42.154;23.002;2022-08-26T14:17:02;96479.47;;;30.88;33.58
36630;BME280;36256;42.154;23.002;2022-08-26T14:19:30;96479.13;;;31.03;30.97
36630;BME280;36256;42.154;23.002;2022-08-26T14:21:57;96478.84;;;30.99;31.06
36630;BME280;36256;42.154;23.002;2022-08-26T14:24:26;96478.41;;;30.83;34.03